sensor_id;sensor_type;location;lat;lon;timestamp;pressure;altitude;pressure_sealevel;temperature;humidity
84809;BME280;75044;53.126;18.008;2024-02-04T00:00:00;100748.00;;;7.61;67.99
84809;BME280;75044;53.126;18.008;2024-02-04T00:01:05;100742.62;;;7.61;67.95
84809;BME280;75044;53.126;18.008;2024-02-04T00:02:28;100741.23;;;7.61;67.89
84809;BME280;75044;53.126;18.008;2024-02-04T00:03:31;100740.73;;;7.60;67.98
84809;BME280;75044;53.126;18.008;2024-02-04T00:04:34;100746.30;;;7.60;67.87
84809;BME280;75044;53.126;18.008;2024-02-04T00:05:38;100748.59;;;7.60;67.77
84809;BME280;75044;53.126;18.008;2024-02-04T00:06:41;100753.24;;;7.60;67.70
84809;BME280;75044;53.126;18.008;2024-02-04T00:07:45;100754.95;;;7.61;67.77
84809;BME280;75044;53.126;18.008;2024-02-04T00:08:49;100754.25;;;7.62;68.05
84809;BME280;75044;53.126;18.008;2024-02-04T00:09:53;100767.41;;;7.62;68.03
84809;BME280;75044;53.126;18.008;2024-02-04T00:10:56;100764.48;;;7.62;68.20
84809;BME280;75044;53.126;18.008;2024-02-04T00:11:59;100766.61;;;7.61;68.67
84809;BME280;75044;53.126;18.008;2024-02-04T00:13:06;100759.10;;;7.58;69.17
84809;BME280;75044;53.126;18.008;2024-02-04T00:14:10;100757.25;;;7.52;69.83
84809;BME280;75044;53.126;18.008;2024-02-04T00:15:13;100748.36;;;7.49;69.75
84809;BME280;75044;53.126;18.008;2024-02-04T00:16:16;100751.85;;;7.45;69.91
84809;BME280;75044;53.126;18.008;2024-02-04T00:17:20;100755.11;;;7.42;69.66
84809;BME280;75044;53.126;18.008;2024-02-04T00:18:23;100755.77;;;7.39;70.40
84809;BME280;75044;53.126;18.008;2024-02-04T00:19:27;100754.39;;;7.34;70.32
84809;BME280;75044;53.126;18.008;2024-02-04T00:20:30;100750.15;;;7.32;70.14
84809;BME280;75044;53.126;18.008;2024-02-04T00:21:35;100741.29;;;7.28;70.28
84809;BME280;75044;53.126;18.008;2024-02-04T00:22:39;100738.30;;;7.25;70.53
84809;BME280;75044;53.126;18.008;2024-02-04T00:23:42;100738.36;;;7.23;70.02
84809;BME280;75044;53.126;18.008;2024-02-04T00:24:45;100732.90;;;7.21;70.04
84809;BME280;75044;53.126;18.008;2024-02-04T00:25:49;100730.91;;;7.19;69.84
84809;BME280;75044;53.126;18.008;2024-02-04T00:26:52;100724.89;;;7.18;69.63
84809;BME280;75044;53.126;18.008;2024-02-04T00:27:56;100726.92;;;7.15;69.68
84809;BME280;75044;53.126;18.008;2024-02-04T00:28:59;100731.33;;;7.13;69.85
84809;BME280;75044;53.126;18.008;2024-02-04T00:30:03;100734.33;;;7.13;69.83
84809;BME280;75044;53.126;18.008;2024-02-04T00:31:09;100732.30;;;7.11;69.73
84809;BME280;75044;53.126;18.008;2024-02-04T00:32:13;100737.68;;;7.11;69.68
84809;BME280;75044;53.126;18.008;2024-02-04T00:33:16;100744.48;;;7.11;69.76
84809;BME280;75044;53.126;18.008;2024-02-04T00:34:19;100743.98;;;7.10;69.59
84809;BME280;75044;53.126;18.008;2024-02-04T00:35:22;100748.48;;;7.10;69.63
84809;BME280;75044;53.126;18.008;2024-02-04T00:36:28;100751.23;;;7.11;69.27
84809;BME280;75044;53.126;18.008;2024-02-04T00:37:32;100750.31;;;7.12;69.28
84809;BME280;75044;53.126;18.008;2024-02-04T00:38:35;100749.83;;;7.12;69.19
84809;BME280;75044;53.126;18.008;2024-02-04T00:39:38;100745.83;;;7.12;69.21
84809;BME280;75044;53.126;18.008;2024-02-04T00:40:42;100745.96;;;7.12;69.00
84809;BME280;75044;53.126;18.008;2024-02-04T00:41:45;100743.77;;;7.11;68.92
84809;BME280;75044;53.126;18.008;2024-02-04T00:42:48;100748.29;;;7.11;68.97
84809;BME280;75044;53.126;18.008;2024-02-04T00:43:51;100742.79;;;7.10;68.81
84809;BME280;75044;53.126;18.008;2024-02-04T00:45:05;100747.15;;;7.09;68.75
84809;BME280;75044;53.126;18.008;2024-02-04T00:46:08;100749.24;;;7.09;68.68
84809;BME280;75044;53.126;18.008;2024-02-04T00:47:13;100751.38;;;7.08;68.77
84809;BME280;75044;53.126;18.008;2024-02-04T00:48:16;100754.85;;;7.08;68.94
84809;BME280;75044;53.126;18.008;2024-02-04T00:49:19;100756.94;;;7.08;68.83
84809;BME280;75044;53.126;18.008;2024-02-04T00:50:22;100753.20;;;7.06;69.09
84809;BME280;75044;53.126;18.008;2024-02-04T00:51:26;100748.89;;;7.05;69.51
84809;BME280;75044;53.126;18.008;2024-02-04T00:52:29;100754.16;;;7.04;69.45
84809;BME280;75044;53.126;18.008;2024-02-04T00:53:32;100751.55;;;7.04;69.53
84809;BME280;75044;53.126;18.008;2024-02-04T00:54:38;100746.14;;;7.04;69.63
84809;BME280;75044;53.126;18.008;2024-02-04T00:55:42;100738.84;;;7.00;69.65
84809;BME280;75044;53.126;18.008;2024-02-04T00:56:45;100741.48;;;7.03;69.64
84809;BME280;75044;53.126;18.008;2024-02-04T00:57:48;100742.52;;;7.03;69.54
84809;BME280;75044;53.126;18.008;2024-02-04T00:58:51;100733.20;;;7.02;69.76
84809;BME280;75044;53.126;18.008;2024-02-04T00:59:55;100737.20;;;7.02;69.72
84809;BME280;75044;53.126;18.008;2024-02-04T01:00:59;100741.17;;;7.02;69.93
84809;BME280;75044;53.126;18.008;2024-02-04T01:02:02;100741.86;;;7.02;69.85
84809;BME280;75044;53.126;18.008;2024-02-04T01:03:05;100740.66;;;7.02;69.89
84809;BME280;75044;53.126;18.008;2024-02-04T01:04:09;100737.54;;;7.02;70.04
84809;BME280;75044;53.126;18.008;2024-02-04T01:05:12;100734.89;;;6.99;70.07
84809;BME280;75044;53.126;18.008;2024-02-04T01:06:17;100737.86;;;6.99;70.08
84809;BME280;75044;53.126;18.008;2024-02-04T01:07:20;100737.00;;;6.98;69.93
84809;BME280;75044;53.126;18.008;2024-02-04T01:08:24;100738.90;;;6.99;70.00
84809;BME280;75044;53.126;18.008;2024-02-04T01:09:28;100739.82;;;6.98;69.97
84809;BME280;75044;53.126;18.008;2024-02-04T01:10:31;100736.14;;;6.98;69.95
84809;BME280;75044;53.126;18.008;2024-02-04T01:11:34;100739.19;;;7.01;69.92
84809;BME280;75044;53.126;18.008;2024-02-04T01:12:38;100740.56;;;7.01;69.96
84809;BME280;75044;53.126;18.008;2024-02-04T01:13:41;100743.80;;;7.02;69.89
84809;BME280;75044;53.126;18.008;2024-02-04T01:14:45;100742.89;;;7.03;69.83
84809;BME280;75044;53.126;18.008;2024-02-04T01:15:48;100737.66;;;7.03;69.63
84809;BME280;75044;53.126;18.008;2024-02-04T01:16:52;100735.49;;;7.01;69.82
84809;BME280;75044;53.126;18.008;2024-02-04T01:17:55;100733.59;;;7.01;69.63
84809;BME280;75044;53.126;18.008;2024-02-04T01:18:59;100730.64;;;7.01;69.66
84809;BME280;75044;53.126;18.008;2024-02-04T01:20:03;100724.56;;;7.01;69.52
84809;BME280;75044;53.126;18.008;2024-02-04T01:21:07;100721.02;;;7.03;69.54
84809;BME280;75044;53.126;18.008;2024-02-04T01:22:12;100717.52;;;7.04;69.32
84809;BME280;75044;53.126;18.008;2024-02-04T01:23:16;100717.11;;;7.05;69.36
84809;BME280;75044;53.126;18.008;2024-02-04T01:24:25;100718.45;;;7.06;69.28
84809;BME280;75044;53.126;18.008;2024-02-04T01:25:28;100723.67;;;7.06;69.32
84809;BME280;75044;53.126;18.008;2024-02-04T01:26:31;100730.05;;;7.07;69.21
84809;BME280;75044;53.126;18.008;2024-02-04T01:27:35;100722.88;;;7.08;69.06
84809;BME280;75044;53.126;18.008;2024-02-04T01:28:39;100733.23;;;7.10;69.24
84809;BME280;75044;53.126;18.008;2024-02-04T01:29:42;100732.66;;;7.11;69.10
84809;BME280;75044;53.126;18.008;2024-02-04T01:30:45;100732.86;;;7.10;69.08
84809;BME280;75044;53.126;18.008;2024-02-04T01:31:49;100733.34;;;7.11;69.29
84809;BME280;75044;53.126;18.008;2024-02-04T01:32:52;100734.48;;;7.12;69.26
84809;BME280;75044;53.126;18.008;2024-02-04T01:33:55;100737.41;;;7.13;69.15
84809;BME280;75044;53.126;18.008;2024-02-04T01:34:59;100738.05;;;7.15;69.20
84809;BME280;75044;53.126;18.008;2024-02-04T01:36:03;100741.89;;;7.14;69.16
84809;BME280;75044;53.126;18.008;2024-02-04T01:37:06;100731.95;;;7.15;69.02
84809;BME280;75044;53.126;18.008;2024-02-04T01:38:09;100730.93;;;7.15;68.90
84809;BME280;75044;53.126;18.008;2024-02-04T01:39:12;100734.77;;;7.14;68.82
84809;BME280;75044;53.126;18.008;2024-02-04T01:40:16;100727.35;;;7.13;68.55
84809;BME280;75044;53.126;18.008;2024-02-04T01:41:19;100728.61;;;7.12;68.45
84809;BME280;75044;53.126;18.008;2024-02-04T01:42:24;100728.48;;;7.11;68.51
84809;BME280;75044;53.126;18.008;2024-02-04T01:43:27;100731.52;;;7.09;68.52
84809;BME280;75044;53.126;18.008;2024-02-04T01:44:31;100731.02;;;7.09;68.43
84809;BME280;75044;53.126;18.008;2024-02-04T01:45:34;100734.48;;;7.09;68.24
84809;BME280;75044;53.126;18.008;2024-02-04T01:46:38;100733.43;;;7.09;67.99
84809;BME280;75044;53.126;18.008;2024-02-04T01:47:41;100727.67;;;7.09;68.02
84809;BME280;75044;53.126;18.008;2024-02-04T01:48:44;100727.30;;;7.10;67.79
84809;BME280;75044;53.126;18.008;2024-02-04T01:49:47;100723.10;;;7.11;67.65
84809;BME280;75044;53.126;18.008;2024-02-04T01:50:53;100715.73;;;7.09;67.28
84809;BME280;75044;53.126;18.008;2024-02-04T01:52:00;100708.08;;;7.09;67.26
84809;BME280;75044;53.126;18.008;2024-02-04T01:53:05;100701.35;;;7.08;67.24
84809;BME280;75044;53.126;18.008;2024-02-04T01:54:08;100704.17;;;7.07;66.89
84809;BME280;75044;53.126;18.008;2024-02-04T01:55:12;100705.48;;;7.05;66.99
84809;BME280;75044;53.126;18.008;2024-02-04T01:56:17;100698.59;;;7.04;67.27
84809;BME280;75044;53.126;18.008;2024-02-04T01:57:20;100700.17;;;7.03;67.01
84809;BME280;75044;53.126;18.008;2024-02-04T01:58:24;100702.13;;;7.02;67.09
84809;BME280;75044;53.126;18.008;2024-02-04T01:59:29;100708.41;;;7.01;66.93
84809;BME280;75044;53.126;18.008;2024-02-04T02:00:33;100708.63;;;7.00;67.24
84809;BME280;75044;53.126;18.008;2024-02-04T02:01:37;100708.65;;;7.00;67.22
84809;BME280;75044;53.126;18.008;2024-02-04T02:02:42;100701.89;;;6.99;66.88
84809;BME280;75044;53.126;18.008;2024-02-04T02:03:46;100691.84;;;6.95;66.88
84809;BME280;75044;53.126;18.008;2024-02-04T02:04:49;100692.45;;;6.97;66.88
84809;BME280;75044;53.126;18.008;2024-02-04T02:05:56;100693.79;;;6.94;66.68
84809;BME280;75044;53.126;18.008;2024-02-04T02:07:00;100701.33;;;6.92;66.61
84809;BME280;75044;53.126;18.008;2024-02-04T02:08:07;100709.84;;;6.92;66.50
84809;BME280;75044;53.126;18.008;2024-02-04T02:09:11;100714.33;;;6.92;66.61
84809;BME280;75044;53.126;18.008;2024-02-04T02:10:14;100717.61;;;6.93;66.47
84809;BME280;75044;53.126;18.008;2024-02-04T02:11:35;100715.36;;;6.93;66.74
84809;BME280;75044;53.126;18.008;2024-02-04T02:12:50;100720.61;;;6.92;66.35
84809;BME280;75044;53.126;18.008;2024-02-04T02:14:00;100721.52;;;6.91;66.32
84809;BME280;75044;53.126;18.008;2024-02-04T02:15:17;100727.11;;;6.90;66.50
84809;BME280;75044;53.126;18.008;2024-02-04T02:16:23;100730.77;;;6.89;66.52
84809;BME280;75044;53.126;18.008;2024-02-04T02:17:33;100729.40;;;6.89;66.70
84809;BME280;75044;53.126;18.008;2024-02-04T02:18:54;100726.15;;;6.88;66.41
84809;BME280;75044;53.126;18.008;2024-02-04T02:20:18;100728.80;;;6.87;66.52
84809;BME280;75044;53.126;18.008;2024-02-04T02:25:28;100719.04;;;6.80;66.77
84809;BME280;75044;53.126;18.008;2024-02-04T02:26:33;100721.87;;;6.79;66.76
84809;BME280;75044;53.126;18.008;2024-02-04T02:27:50;100715.88;;;6.77;66.90
84809;BME280;75044;53.126;18.008;2024-02-04T02:28:53;100719.36;;;6.76;67.05
84809;BME280;75044;53.126;18.008;2024-02-04T02:29:57;100720.41;;;6.76;67.08
84809;BME280;75044;53.126;18.008;2024-02-04T02:31:02;100719.80;;;6.74;67.10
84809;BME280;75044;53.126;18.008;2024-02-04T02:32:05;100715.83;;;6.74;67.02
84809;BME280;75044;53.126;18.008;2024-02-04T02:33:08;100719.66;;;6.73;67.03
84809;BME280;75044;53.126;18.008;2024-02-04T02:34:12;100722.80;;;6.73;67.10
84809;BME280;75044;53.126;18.008;2024-02-04T02:35:16;100721.15;;;6.71;67.24
84809;BME280;75044;53.126;18.008;2024-02-04T02:36:21;100722.57;;;6.70;67.28
84809;BME280;75044;53.126;18.008;2024-02-04T02:40:12;100709.44;;;6.64;67.08
84809;BME280;75044;53.126;18.008;2024-02-04T02:41:18;100702.29;;;6.61;67.08
84809;BME280;75044;53.126;18.008;2024-02-04T02:42:25;100703.40;;;6.59;67.16
84809;BME280;75044;53.126;18.008;2024-02-04T02:43:30;100701.70;;;6.58;67.01
84809;BME280;75044;53.126;18.008;2024-02-04T02:44:36;100702.60;;;6.57;67.26
84809;BME280;75044;53.126;18.008;2024-02-04T02:45:42;100700.27;;;6.55;66.96
84809;BME280;75044;53.126;18.008;2024-02-04T02:46:46;100700.20;;;6.53;67.15
84809;BME280;75044;53.126;18.008;2024-02-04T02:47:52;100701.65;;;6.51;67.07
84809;BME280;75044;53.126;18.008;2024-02-04T02:48:57;100706.04;;;6.50;67.18
84809;BME280;75044;53.126;18.008;2024-02-04T02:50:01;100708.32;;;6.49;67.28
84809;BME280;75044;53.126;18.008;2024-02-04T02:51:04;100712.00;;;6.49;67.20
84809;BME280;75044;53.126;18.008;2024-02-04T02:52:08;100720.63;;;6.45;67.29
84809;BME280;75044;53.126;18.008;2024-02-04T02:53:11;100729.54;;;6.44;67.31
84809;BME280;75044;53.126;18.008;2024-02-04T02:54:14;100734.11;;;6.42;67.34
84809;BME280;75044;53.126;18.008;2024-02-04T02:55:18;100738.38;;;6.39;67.49
84809;BME280;75044;53.126;18.008;2024-02-04T02:56:21;100738.62;;;6.38;67.54
84809;BME280;75044;53.126;18.008;2024-02-04T02:57:24;100738.66;;;6.37;67.66
84809;BME280;75044;53.126;18.008;2024-02-04T02:58:28;100740.59;;;6.36;67.66
84809;BME280;75044;53.126;18.008;2024-02-04T02:59:31;100742.52;;;6.36;67.82
84809;BME280;75044;53.126;18.008;2024-02-04T03:00:34;100739.79;;;6.35;67.61
84809;BME280;75044;53.126;18.008;2024-02-04T03:01:41;100743.11;;;6.34;67.72
84809;BME280;75044;53.126;18.008;2024-02-04T03:02:44;100748.48;;;6.34;67.73
84809;BME280;75044;53.126;18.008;2024-02-04T03:03:47;100744.67;;;6.34;67.77
84809;BME280;75044;53.126;18.008;2024-02-04T03:04:50;100747.70;;;6.32;67.51
84809;BME280;75044;53.126;18.008;2024-02-04T03:05:53;100749.81;;;6.31;67.41
84809;BME280;75044;53.126;18.008;2024-02-04T03:06:57;100746.55;;;6.30;67.44
84809;BME280;75044;53.126;18.008;2024-02-04T03:08:01;100752.27;;;6.31;67.28
84809;BME280;75044;53.126;18.008;2024-02-04T03:09:04;100751.38;;;6.31;67.53
84809;BME280;75044;53.126;18.008;2024-02-04T03:10:09;100749.58;;;6.33;67.25
84809;BME280;75044;53.126;18.008;2024-02-04T03:11:13;100750.19;;;6.35;67.18
84809;BME280;75044;53.126;18.008;2024-02-04T03:12:17;100750.98;;;6.37;67.07
84809;BME280;75044;53.126;18.008;2024-02-04T03:13:20;100747.82;;;6.38;66.91
84809;BME280;75044;53.126;18.008;2024-02-04T03:14:24;100748.01;;;6.37;66.96
84809;BME280;75044;53.126;18.008;2024-02-04T03:15:27;100749.54;;;6.38;67.18
84809;BME280;75044;53.126;18.008;2024-02-04T03:16:31;100751.58;;;6.39;66.92
84809;BME280;75044;53.126;18.008;2024-02-04T03:17:34;100750.98;;;6.41;66.99
84809;BME280;75044;53.126;18.008;2024-02-04T03:18:41;100751.49;;;6.41;66.75
84809;BME280;75044;53.126;18.008;2024-02-04T03:19:48;100751.11;;;6.42;66.85
84809;BME280;75044;53.126;18.008;2024-02-04T03:20:54;100757.29;;;6.44;66.72
84809;BME280;75044;53.126;18.008;2024-02-04T03:21:57;100756.73;;;6.45;66.71
84809;BME280;75044;53.126;18.008;2024-02-04T03:23:01;100757.30;;;6.44;66.37
84809;BME280;75044;53.126;18.008;2024-02-04T03:24:05;100751.13;;;6.42;66.36
84809;BME280;75044;53.126;18.008;2024-02-04T03:25:09;100754.45;;;6.41;66.41
84809;BME280;75044;53.126;18.008;2024-02-04T03:26:16;100754.98;;;6.41;66.59
84809;BME280;75044;53.126;18.008;2024-02-04T03:27:22;100752.02;;;6.41;66.33
84809;BME280;75044;53.126;18.008;2024-02-04T03:28:25;100751.82;;;6.42;66.29
84809;BME280;75044;53.126;18.008;2024-02-04T03:29:29;100748.67;;;6.42;66.44
84809;BME280;75044;53.126;18.008;2024-02-04T03:30:32;100752.09;;;6.44;66.22
84809;BME280;75044;53.126;18.008;2024-02-04T03:31:35;100755.38;;;6.44;65.97
84809;BME280;75044;53.126;18.008;2024-02-04T03:32:39;100755.90;;;6.44;66.05
84809;BME280;75044;53.126;18.008;2024-02-04T03:33:42;100751.23;;;6.43;66.21
84809;BME280;75044;53.126;18.008;2024-02-04T03:34:45;100755.33;;;6.45;66.23
84809;BME280;75044;53.126;18.008;2024-02-04T03:35:49;100755.47;;;6.46;65.78
84809;BME280;75044;53.126;18.008;2024-02-04T03:36:52;100752.66;;;6.46;66.02
84809;BME280;75044;53.126;18.008;2024-02-04T03:37:55;100750.59;;;6.47;66.21
84809;BME280;75044;53.126;18.008;2024-02-04T03:38:59;100753.73;;;6.46;65.99
84809;BME280;75044;53.126;18.008;2024-02-04T03:40:03;100754.96;;;6.46;65.66
84809;BME280;75044;53.126;18.008;2024-02-04T03:41:06;100756.70;;;6.46;65.66
84809;BME280;75044;53.126;18.008;2024-02-04T03:42:11;100755.46;;;6.46;65.67
84809;BME280;75044;53.126;18.008;2024-02-04T03:43:15;100759.08;;;6.46;65.61
84809;BME280;75044;53.126;18.008;2024-02-04T03:44:18;100761.67;;;6.46;65.28
84809;BME280;75044;53.126;18.008;2024-02-04T03:45:22;100761.00;;;6.46;65.48
84809;BME280;75044;53.126;18.008;2024-02-04T03:46:25;100762.03;;;6.47;65.88
84809;BME280;75044;53.126;18.008;2024-02-04T03:47:28;100760.50;;;6.46;65.86
84809;BME280;75044;53.126;18.008;2024-02-04T03:48:32;100761.73;;;6.45;65.69
84809;BME280;75044;53.126;18.008;2024-02-04T03:49:37;100760.70;;;6.45;65.97
84809;BME280;75044;53.126;18.008;2024-02-04T03:50:40;100767.13;;;6.45;65.85
84809;BME280;75044;53.126;18.008;2024-02-04T03:51:44;100764.85;;;6.45;65.62
84809;BME280;75044;53.126;18.008;2024-02-04T03:52:47;100762.41;;;6.46;65.64
84809;BME280;75044;53.126;18.008;2024-02-04T03:53:51;100761.21;;;6.45;65.68
84809;BME280;75044;53.126;18.008;2024-02-04T03:54:55;100763.70;;;6.44;65.76
84809;BME280;75044;53.126;18.008;2024-02-04T03:55:58;100768.14;;;6.46;65.60
84809;BME280;75044;53.126;18.008;2024-02-04T03:57:02;100769.15;;;6.46;65.75
84809;BME280;75044;53.126;18.008;2024-02-04T03:58:06;100764.97;;;6.47;65.94
84809;BME280;75044;53.126;18.008;2024-02-04T03:59:09;100764.39;;;6.48;66.03
84809;BME280;75044;53.126;18.008;2024-02-04T04:00:14;100761.86;;;6.51;65.83
84809;BME280;75044;53.126;18.008;2024-02-04T04:01:17;100764.38;;;6.53;65.80
84809;BME280;75044;53.126;18.008;2024-02-04T04:02:20;100758.98;;;6.53;65.42
84809;BME280;75044;53.126;18.008;2024-02-04T04:03:24;100750.64;;;6.54;65.23
84809;BME280;75044;53.126;18.008;2024-02-04T04:04:27;100744.41;;;6.54;65.27
84809;BME280;75044;53.126;18.008;2024-02-04T04:05:31;100741.86;;;6.52;65.24
84809;BME280;75044;53.126;18.008;2024-02-04T04:06:39;100736.05;;;6.50;65.28
84809;BME280;75044;53.126;18.008;2024-02-04T04:07:43;100733.52;;;6.48;65.40
84809;BME280;75044;53.126;18.008;2024-02-04T04:08:46;100735.09;;;6.48;65.51
84809;BME280;75044;53.126;18.008;2024-02-04T04:09:50;100735.95;;;6.48;65.71
84809;BME280;75044;53.126;18.008;2024-02-04T04:10:53;100739.06;;;6.48;65.73
84809;BME280;75044;53.126;18.008;2024-02-04T04:11:56;100739.36;;;6.49;65.61
84809;BME280;75044;53.126;18.008;2024-02-04T04:12:59;100739.49;;;6.50;65.48
84809;BME280;75044;53.126;18.008;2024-02-04T04:14:03;100734.15;;;6.50;65.45
84809;BME280;75044;53.126;18.008;2024-02-04T04:15:06;100733.43;;;6.50;65.41
84809;BME280;75044;53.126;18.008;2024-02-04T04:16:10;100740.73;;;6.50;65.46
84809;BME280;75044;53.126;18.008;2024-02-04T04:17:15;100737.98;;;6.49;65.34
84809;BME280;75044;53.126;18.008;2024-02-04T04:18:19;100736.59;;;6.50;65.26
84809;BME280;75044;53.126;18.008;2024-02-04T04:19:22;100736.83;;;6.48;65.45
84809;BME280;75044;53.126;18.008;2024-02-04T04:20:25;100738.36;;;6.48;65.56
84809;BME280;75044;53.126;18.008;2024-02-04T04:21:28;100739.65;;;6.47;65.83
84809;BME280;75044;53.126;18.008;2024-02-04T04:22:34;100736.73;;;6.46;65.59
84809;BME280;75044;53.126;18.008;2024-02-04T04:23:37;100740.33;;;6.47;65.49
84809;BME280;75044;53.126;18.008;2024-02-04T04:24:41;100736.36;;;6.47;65.74
84809;BME280;75044;53.126;18.008;2024-02-04T04:25:44;100736.83;;;6.48;65.69
84809;BME280;75044;53.126;18.008;2024-02-04T04:26:47;100736.43;;;6.49;65.72
84809;BME280;75044;53.126;18.008;2024-02-04T04:27:50;100732.39;;;6.50;65.75
84809;BME280;75044;53.126;18.008;2024-02-04T04:28:54;100729.98;;;6.50;65.75
84809;BME280;75044;53.126;18.008;2024-02-04T04:29:57;100730.10;;;6.51;65.74
84809;BME280;75044;53.126;18.008;2024-02-04T04:31:00;100729.91;;;6.52;65.70
84809;BME280;75044;53.126;18.008;2024-02-04T04:32:04;100734.63;;;6.51;65.71
84809;BME280;75044;53.126;18.008;2024-02-04T04:33:08;100729.23;;;6.51;65.85
84809;BME280;75044;53.126;18.008;2024-02-04T04:34:11;100731.98;;;6.52;65.93
84809;BME280;75044;53.126;18.008;2024-02-04T04:35:14;100729.44;;;6.51;65.84
84809;BME280;75044;53.126;18.008;2024-02-04T04:36:18;100729.11;;;6.50;66.12
84809;BME280;75044;53.126;18.008;2024-02-04T04:37:21;100724.58;;;6.50;65.96
84809;BME280;75044;53.126;18.008;2024-02-04T04:38:24;100725.44;;;6.51;65.97
84809;BME280;75044;53.126;18.008;2024-02-04T04:39:27;100723.67;;;6.52;66.09
84809;BME280;75044;53.126;18.008;2024-02-04T04:40:30;100726.27;;;6.51;66.16
84809;BME280;75044;53.126;18.008;2024-02-04T04:41:35;100723.16;;;6.51;66.22
84809;BME280;75044;53.126;18.008;2024-02-04T04:42:39;100721.77;;;6.52;66.04
84809;BME280;75044;53.126;18.008;2024-02-04T04:43:43;100724.36;;;6.52;66.13
84809;BME280;75044;53.126;18.008;2024-02-04T04:44:46;100727.65;;;6.52;66.19
84809;BME280;75044;53.126;18.008;2024-02-04T04:45:51;100723.69;;;6.51;66.13
84809;BME280;75044;53.126;18.008;2024-02-04T04:46:54;100728.23;;;6.50;66.18
84809;BME280;75044;53.126;18.008;2024-02-04T04:47:58;100723.66;;;6.52;66.15
84809;BME280;75044;53.126;18.008;2024-02-04T04:49:02;100725.70;;;6.53;66.20
84809;BME280;75044;53.126;18.008;2024-02-04T04:50:05;100726.25;;;6.52;66.25
84809;BME280;75044;53.126;18.008;2024-02-04T04:51:11;100727.27;;;6.53;66.31
84809;BME280;75044;53.126;18.008;2024-02-04T04:52:14;100723.42;;;6.53;66.30
84809;BME280;75044;53.126;18.008;2024-02-04T04:53:18;100719.95;;;6.53;66.32
84809;BME280;75044;53.126;18.008;2024-02-04T04:54:22;100720.12;;;6.54;66.29
84809;BME280;75044;53.126;18.008;2024-02-04T04:55:25;100717.48;;;6.54;66.18
84809;BME280;75044;53.126;18.008;2024-02-04T04:56:29;100716.11;;;6.54;66.11
84809;BME280;75044;53.126;18.008;2024-02-04T04:57:37;100723.71;;;6.54;66.33
84809;BME280;75044;53.126;18.008;2024-02-04T04:58:40;100717.33;;;6.54;66.16
84809;BME280;75044;53.126;18.008;2024-02-04T04:59:44;100722.96;;;6.52;66.40
84809;BME280;75044;53.126;18.008;2024-02-04T05:00:48;100722.83;;;6.51;66.35
84809;BME280;75044;53.126;18.008;2024-02-04T05:01:51;100719.36;;;6.50;66.34
84809;BME280;75044;53.126;18.008;2024-02-04T05:02:54;100718.34;;;6.50;66.25
84809;BME280;75044;53.126;18.008;2024-02-04T05:03:57;100713.64;;;6.51;66.31
84809;BME280;75044;53.126;18.008;2024-02-04T05:05:01;100713.04;;;6.48;66.19
84809;BME280;75044;53.126;18.008;2024-02-04T05:06:05;100710.46;;;6.48;66.31
84809;BME280;75044;53.126;18.008;2024-02-04T05:07:08;100712.42;;;6.47;66.38
84809;BME280;75044;53.126;18.008;2024-02-04T05:08:14;100708.77;;;6.46;66.45
84809;BME280;75044;53.126;18.008;2024-02-04T05:09:18;100705.83;;;6.47;66.35
84809;BME280;75044;53.126;18.008;2024-02-04T05:10:21;100703.02;;;6.48;66.32
84809;BME280;75044;53.126;18.008;2024-02-04T05:11:24;100704.73;;;6.48;66.37
84809;BME280;75044;53.126;18.008;2024-02-04T05:12:28;100705.90;;;6.49;66.17
84809;BME280;75044;53.126;18.008;2024-02-04T05:13:31;100699.30;;;6.50;66.39
84809;BME280;75044;53.126;18.008;2024-02-04T05:14:34;100705.14;;;6.50;66.42
84809;BME280;75044;53.126;18.008;2024-02-04T05:15:37;100703.08;;;6.50;66.31
84809;BME280;75044;53.126;18.008;2024-02-04T05:16:41;100702.65;;;6.48;66.42
84809;BME280;75044;53.126;18.008;2024-02-04T05:17:47;100700.39;;;6.48;66.28
84809;BME280;75044;53.126;18.008;2024-02-04T05:18:50;100701.98;;;6.47;66.21
84809;BME280;75044;53.126;18.008;2024-02-04T05:19:53;100699.38;;;6.48;66.22
84809;BME280;75044;53.126;18.008;2024-02-04T05:20:57;100701.96;;;6.48;66.38
84809;BME280;75044;53.126;18.008;2024-02-04T05:22:00;100702.70;;;6.47;66.16
84809;BME280;75044;53.126;18.008;2024-02-04T05:23:04;100699.85;;;6.44;66.29
84809;BME280;75044;53.126;18.008;2024-02-04T05:24:07;100694.49;;;6.44;66.27
84809;BME280;75044;53.126;18.008;2024-02-04T05:25:10;100693.85;;;6.43;66.43
84809;BME280;75044;53.126;18.008;2024-02-04T05:26:13;100701.86;;;6.42;66.43
84809;BME280;75044;53.126;18.008;2024-02-04T05:27:17;100693.89;;;6.41;66.43
84809;BME280;75044;53.126;18.008;2024-02-04T05:28:21;100690.65;;;6.40;66.20
84809;BME280;75044;53.126;18.008;2024-02-04T05:29:24;100689.46;;;6.40;66.37
84809;BME280;75044;53.126;18.008;2024-02-04T05:30:27;100682.88;;;6.40;66.07
84809;BME280;75044;53.126;18.008;2024-02-04T05:31:30;100685.84;;;6.39;66.22
84809;BME280;75044;53.126;18.008;2024-02-04T05:32:35;100694.56;;;6.38;66.35
84809;BME280;75044;53.126;18.008;2024-02-04T05:33:38;100700.49;;;6.37;66.17
84809;BME280;75044;53.126;18.008;2024-02-04T05:34:41;100697.98;;;6.35;66.38
84809;BME280;75044;53.126;18.008;2024-02-04T05:35:45;100696.18;;;6.32;66.33
84809;BME280;75044;53.126;18.008;2024-02-04T05:36:48;100692.74;;;6.31;66.39
84809;BME280;75044;53.126;18.008;2024-02-04T05:37:51;100688.45;;;6.30;66.30
84809;BME280;75044;53.126;18.008;2024-02-04T05:38:54;100690.78;;;6.29;66.39
84809;BME280;75044;53.126;18.008;2024-02-04T05:39:58;100683.69;;;6.28;66.34
84809;BME280;75044;53.126;18.008;2024-02-04T05:41:01;100685.63;;;6.27;66.36
84809;BME280;75044;53.126;18.008;2024-02-04T05:42:05;100683.35;;;6.27;66.40